Terminal Aerodrome Forecast
Issued by NWS

Home | Current Version | Previous Version | Graphics & Text | Print | Product List | Glossary On
Versions: 1 2 3 4 5 6 7 8 9 10 11
101
FTUS43 KFGF 270520
TAFBJI
TAF
KBJI 270520Z 2706/2806 10006KT P6SM SCT070
     FM271600 07013G20KT P6SM BKN200
     FM280100 07009KT P6SM SCT200=

USA.gov is the U.S. government's official web portal to all federal, state and local government web resources and services.